sensor_id;sensor_type;location;lat;lon;timestamp;pressure;altitude;pressure_sealevel;temperature;humidity
66560;BME280;53413;49.878;8.142;2023-04-01T00:02:16;98249.06;;;9.85;100.00
66560;BME280;53413;49.878;8.142;2023-04-01T00:04:42;98243.09;;;9.83;100.00
66560;BME280;53413;49.878;8.142;2023-04-01T00:07:08;98245.78;;;9.81;100.00
66560;BME280;53413;49.878;8.142;2023-04-01T00:09:34;98255.53;;;9.79;100.00
66560;BME280;53413;49.878;8.142;2023-04-01T00:12:00;98248.59;;;9.78;100.00
66560;BME280;53413;49.878;8.142;2023-04-01T00:14:25;98240.66;;;9.80;100.00
66560;BME280;53413;49.878;8.142;2023-04-01T00:16:51;98241.47;;;9.80;100.00
66560;BME280;53413;49.878;8.142;2023-04-01T00:19:17;98244.38;;;9.76;100.00
66560;BME280;53413;49.878;8.142;2023-04-01T00:21:43;98248.97;;;9.72;100.00
66560;BME280;53413;49.878;8.142;2023-04-01T00:24:08;98252.34;;;9.74;100.00
66560;BME280;53413;49.878;8.142;2023-04-01T00:26:34;98250.78;;;9.72;100.00
66560;BME280;53413;49.878;8.142;2023-04-01T00:28:59;98254.50;;;9.67;100.00
66560;BME280;53413;49.878;8.142;2023-04-01T00:31:25;98240.50;;;9.68;100.00
66560;BME280;53413;49.878;8.142;2023-04-01T00:33:51;98244.69;;;9.71;100.00
66560;BME280;53413;49.878;8.142;2023-04-01T00:36:19;98234.22;;;9.71;100.00
66560;BME280;53413;49.878;8.142;2023-04-01T00:38:47;98235.16;;;9.70;100.00
66560;BME280;53413;49.878;8.142;2023-04-01T00:41:14;98236.00;;;9.70;100.00
66560;BME280;53413;49.878;8.142;2023-04-01T00:43:42;98242.34;;;9.66;100.00
66560;BME280;53413;49.878;8.142;2023-04-01T00:46:08;98240.59;;;9.67;100.00
66560;BME280;53413;49.878;8.142;2023-04-01T00:48:36;98244.16;;;9.66;100.00
66560;BME280;53413;49.878;8.142;2023-04-01T00:51:08;98238.25;;;9.62;100.00
66560;BME280;53413;49.878;8.142;2023-04-01T00:53:38;98231.63;;;9.57;100.00
66560;BME280;53413;49.878;8.142;2023-04-01T00:56:12;98238.84;;;9.53;100.00
66560;BME280;53413;49.878;8.142;2023-04-01T00:58:43;98242.50;;;9.50;100.00
66560;BME280;53413;49.878;8.142;2023-04-01T01:01:09;98238.47;;;9.45;100.00
66560;BME280;53413;49.878;8.142;2023-04-01T01:03:35;98237.63;;;9.44;100.00
66560;BME280;53413;49.878;8.142;2023-04-01T01:11:35;98244.91;;;9.53;100.00
66560;BME280;53413;49.878;8.142;2023-04-01T01:14:10;98233.91;;;9.48;100.00
66560;BME280;53413;49.878;8.142;2023-04-01T01:16:44;98230.75;;;9.43;100.00
66560;BME280;53413;49.878;8.142;2023-04-01T01:19:45;98240.25;;;9.44;100.00
66560;BME280;53413;49.878;8.142;2023-04-01T01:23:18;98235.75;;;9.46;100.00
66560;BME280;53413;49.878;8.142;2023-04-01T01:31:12;98235.13;;;9.43;100.00
66560;BME280;53413;49.878;8.142;2023-04-01T01:33:50;98236.50;;;9.48;100.00
66560;BME280;53413;49.878;8.142;2023-04-01T01:36:19;98243.13;;;9.54;100.00
66560;BME280;53413;49.878;8.142;2023-04-01T01:38:48;98244.63;;;9.58;100.00
66560;BME280;53413;49.878;8.142;2023-04-01T01:41:16;98236.50;;;9.63;100.00
66560;BME280;53413;49.878;8.142;2023-04-01T01:43:45;98235.22;;;9.55;100.00
66560;BME280;53413;49.878;8.142;2023-04-01T01:46:19;98222.31;;;9.52;100.00
66560;BME280;53413;49.878;8.142;2023-04-01T01:48:46;98228.38;;;9.53;100.00
66560;BME280;53413;49.878;8.142;2023-04-01T01:51:12;98230.53;;;9.46;100.00
66560;BME280;53413;49.878;8.142;2023-04-01T01:53:38;98223.16;;;9.38;100.00
66560;BME280;53413;49.878;8.142;2023-04-01T01:56:03;98229.72;;;9.31;100.00
66560;BME280;53413;49.878;8.142;2023-04-01T01:58:32;98230.66;;;9.30;100.00
66560;BME280;53413;49.878;8.142;2023-04-01T02:01:08;98232.59;;;9.41;100.00
66560;BME280;53413;49.878;8.142;2023-04-01T02:03:37;98229.41;;;9.50;100.00
66560;BME280;53413;49.878;8.142;2023-04-01T02:06:06;98237.06;;;9.53;100.00
66560;BME280;53413;49.878;8.142;2023-04-01T02:08:55;98235.75;;;9.46;100.00
66560;BME280;53413;49.878;8.142;2023-04-01T02:11:35;98235.13;;;9.43;100.00
66560;BME280;53413;49.878;8.142;2023-04-01T02:14:10;98236.50;;;9.34;100.00
66560;BME280;53413;49.878;8.142;2023-04-01T02:16:45;98241.84;;;9.32;100.00
66560;BME280;53413;49.878;8.142;2023-04-01T02:19:14;98243.44;;;9.35;100.00
66560;BME280;53413;49.878;8.142;2023-04-01T02:21:49;98249.31;;;9.38;100.00
66560;BME280;53413;49.878;8.142;2023-04-01T02:24:17;98240.25;;;9.44;100.00
66560;BME280;53413;49.878;8.142;2023-04-01T02:26:44;98246.31;;;9.45;100.00
66560;BME280;53413;49.878;8.142;2023-04-01T02:29:11;98248.75;;;9.48;100.00
66560;BME280;53413;49.878;8.142;2023-04-01T02:31:37;98244.28;;;9.50;100.00
66560;BME280;53413;49.878;8.142;2023-04-01T02:34:03;98245.00;;;9.52;100.00
66560;BME280;53413;49.878;8.142;2023-04-01T02:36:29;98229.31;;;9.52;100.00
66560;BME280;53413;49.878;8.142;2023-04-01T02:38:55;98242.50;;;9.50;100.00
66560;BME280;53413;49.878;8.142;2023-04-01T02:41:24;98237.44;;;9.47;100.00
66560;BME280;53413;49.878;8.142;2023-04-01T02:43:50;98240.81;;;9.49;100.00
66560;BME280;53413;49.878;8.142;2023-04-01T02:46:15;98231.38;;;9.47;100.00
66560;BME280;53413;49.878;8.142;2023-04-01T02:48:41;98232.59;;;9.41;100.00
66560;BME280;53413;49.878;8.142;2023-04-01T02:51:06;98233.53;;;9.40;100.00
66560;BME280;53413;49.878;8.142;2023-04-01T02:53:31;98240.25;;;9.44;100.00
66560;BME280;53413;49.878;8.142;2023-04-01T02:55:57;98236.50;;;9.48;100.00
66560;BME280;53413;49.878;8.142;2023-04-01T02:58:22;98224.00;;;9.53;100.00
66560;BME280;53413;49.878;8.142;2023-04-01T03:00:47;98228.94;;;9.58;100.00
66560;BME280;53413;49.878;8.142;2023-04-01T03:03:13;98230.63;;;9.59;100.00
66560;BME280;53413;49.878;8.142;2023-04-01T03:05:38;98234.81;;;9.62;100.00
66560;BME280;53413;49.878;8.142;2023-04-01T03:08:04;98226.97;;;9.62;100.00
66560;BME280;53413;49.878;8.142;2023-04-01T03:10:30;98229.56;;;9.62;100.00
66560;BME280;53413;49.878;8.142;2023-04-01T03:12:55;98240.03;;;9.62;100.00
66560;BME280;53413;49.878;8.142;2023-04-01T03:15:21;98221.63;;;9.63;100.00
66560;BME280;53413;49.878;8.142;2023-04-01T03:17:46;98233.03;;;9.62;100.00
66560;BME280;53413;49.878;8.142;2023-04-01T03:20:13;98219.75;;;9.65;100.00
66560;BME280;53413;49.878;8.142;2023-04-01T03:22:38;98225.72;;;9.67;100.00
66560;BME280;53413;49.878;8.142;2023-04-01T03:25:05;98231.72;;;9.69;100.00
66560;BME280;53413;49.878;8.142;2023-04-01T03:27:30;98229.28;;;9.66;100.00
66560;BME280;53413;49.878;8.142;2023-04-01T03:29:56;98228.06;;;9.58;100.00
66560;BME280;53413;49.878;8.142;2023-04-01T03:32:21;98224.75;;;9.55;100.00
66560;BME280;53413;49.878;8.142;2023-04-01T03:34:46;98236.31;;;9.51;100.00
66560;BME280;53413;49.878;8.142;2023-04-01T03:37:12;98235.38;;;9.52;100.00
66560;BME280;53413;49.878;8.142;2023-04-01T03:39:37;98233.53;;;9.54;100.00
66560;BME280;53413;49.878;8.142;2023-04-01T03:42:03;98236.78;;;9.58;100.00
66560;BME280;53413;49.878;8.142;2023-04-01T03:44:32;98230.63;;;9.59;100.00
66560;BME280;53413;49.878;8.142;2023-04-01T03:46:58;98237.31;;;9.63;100.00
66560;BME280;53413;49.878;8.142;2023-04-01T03:49:23;98231.16;;;9.64;100.00
66560;BME280;53413;49.878;8.142;2023-04-01T03:51:49;98238.06;;;9.65;100.00
66560;BME280;53413;49.878;8.142;2023-04-01T03:54:14;98239.84;;;9.65;100.00
66560;BME280;53413;49.878;8.142;2023-04-01T03:56:40;98227.59;;;9.65;100.00
66560;BME280;53413;49.878;8.142;2023-04-01T03:59:07;98229.22;;;9.68;100.00
66560;BME280;53413;49.878;8.142;2023-04-01T04:01:33;98237.78;;;9.70;100.00
66560;BME280;53413;49.878;8.142;2023-04-01T04:03:58;98235.91;;;9.72;100.00
66560;BME280;53413;49.878;8.142;2023-04-01T04:06:25;98236.75;;;9.73;100.00
66560;BME280;53413;49.878;8.142;2023-04-01T04:08:50;98228.25;;;9.69;100.00
66560;BME280;53413;49.878;8.142;2023-04-01T04:11:16;98232.66;;;9.68;100.00
66560;BME280;53413;49.878;8.142;2023-04-01T04:13:42;98241.31;;;9.69;100.00
66560;BME280;53413;49.878;8.142;2023-04-01T04:16:08;98239.75;;;9.66;100.00
66560;BME280;53413;49.878;8.142;2023-04-01T04:18:35;98248.53;;;9.65;100.00
66560;BME280;53413;49.878;8.142;2023-04-01T04:21:00;98243.59;;;9.61;100.00
66560;BME280;53413;49.878;8.142;2023-04-01T04:23:26;98247.13;;;9.60;100.00
66560;BME280;53413;49.878;8.142;2023-04-01T04:28:22;98243.78;;;9.58;100.00
66560;BME280;53413;49.878;8.142;2023-04-01T04:30:47;98238.53;;;9.58;100.00
66560;BME280;53413;49.878;8.142;2023-04-01T04:33:12;98243.88;;;9.56;100.00
66560;BME280;53413;49.878;8.142;2023-04-01T04:35:38;98243.13;;;9.54;100.00
66560;BME280;53413;49.878;8.142;2023-04-01T04:38:03;98250.16;;;9.53;100.00
66560;BME280;53413;49.878;8.142;2023-04-01T04:40:28;98243.53;;;9.48;100.00
66560;BME280;53413;49.878;8.142;2023-04-01T04:42:53;98243.59;;;9.46;100.00
66560;BME280;53413;49.878;8.142;2023-04-01T04:45:19;98247.25;;;9.44;100.00
66560;BME280;53413;49.878;8.142;2023-04-01T04:47:44;98242.84;;;9.44;100.00
66560;BME280;53413;49.878;8.142;2023-04-01T04:50:10;98242.13;;;9.42;100.00
66560;BME280;53413;49.878;8.142;2023-04-01T04:52:36;98242.84;;;9.44;100.00
66560;BME280;53413;49.878;8.142;2023-04-01T04:55:02;98236.97;;;9.40;100.00
66560;BME280;53413;49.878;8.142;2023-04-01T04:57:27;98240.53;;;9.39;100.00
66560;BME280;53413;49.878;8.142;2023-04-01T04:59:53;98240.81;;;9.35;100.00
66560;BME280;53413;49.878;8.142;2023-04-01T05:02:18;98228.50;;;9.37;100.00
66560;BME280;53413;49.878;8.142;2023-04-01T05:04:43;98242.41;;;9.37;100.00
66560;BME280;53413;49.878;8.142;2023-04-01T05:07:09;98236.34;;;9.37;100.00
66560;BME280;53413;49.878;8.142;2023-04-01T05:09:34;98250.91;;;9.41;100.00
66560;BME280;53413;49.878;8.142;2023-04-01T05:12:00;98240.16;;;9.46;100.00
66560;BME280;53413;49.878;8.142;2023-04-01T05:14:25;98241.84;;;9.47;100.00
66560;BME280;53413;49.878;8.142;2023-04-01T05:16:50;98239.13;;;9.48;100.00
66560;BME280;53413;49.878;8.142;2023-04-01T05:19:17;98235.75;;;9.46;100.00
66560;BME280;53413;49.878;8.142;2023-04-01T05:21:42;98237.44;;;9.47;100.00
66560;BME280;53413;49.878;8.142;2023-04-01T05:24:08;98238.38;;;9.46;100.00
66560;BME280;53413;49.878;8.142;2023-04-01T05:26:34;98236.63;;;9.47;100.00
66560;BME280;53413;49.878;8.142;2023-04-01T05:29:00;98238.31;;;9.48;100.00
66560;BME280;53413;49.878;8.142;2023-04-01T05:31:25;98243.41;;;9.49;100.00
66560;BME280;53413;49.878;8.142;2023-04-01T05:33:51;98247.72;;;9.50;100.00
66560;BME280;53413;49.878;8.142;2023-04-01T05:36:16;98241.66;;;9.50;100.00
66560;BME280;53413;49.878;8.142;2023-04-01T05:38:42;98242.38;;;9.52;100.00
66560;BME280;53413;49.878;8.142;2023-04-01T05:41:09;98247.53;;;9.53;100.00
66560;BME280;53413;49.878;8.142;2023-04-01T05:43:38;98239.88;;;9.50;100.00
66560;BME280;53413;49.878;8.142;2023-04-01T05:46:03;98237.16;;;9.52;100.00
66560;BME280;53413;49.878;8.142;2023-04-01T05:48:29;98238.75;;;9.54;100.00
66560;BME280;53413;49.878;8.142;2023-04-01T05:50:55;98239.28;;;9.60;100.00
66560;BME280;53413;49.878;8.142;2023-04-01T05:53:20;98237.53;;;9.60;100.00
66560;BME280;53413;49.878;8.142;2023-04-01T05:55:46;98235.75;;;9.61;100.00
66560;BME280;53413;49.878;8.142;2023-04-01T05:58:11;98236.50;;;9.63;100.00
66560;BME280;53413;49.878;8.142;2023-04-01T06:00:37;98235.56;;;9.64;100.00
66560;BME280;53413;49.878;8.142;2023-04-01T06:03:03;98227.53;;;9.67;100.00
66560;BME280;53413;49.878;8.142;2023-04-01T06:05:37;98228.25;;;9.69;100.00
66560;BME280;53413;49.878;8.142;2023-04-01T06:08:15;98221.06;;;9.73;100.00
66560;BME280;53413;49.878;8.142;2023-04-01T06:16:15;98225.06;;;9.78;100.00
66560;BME280;53413;49.878;8.142;2023-04-01T06:18:57;98220.47;;;9.82;100.00
66560;BME280;53413;49.878;8.142;2023-04-01T06:24:31;98232.13;;;9.91;100.00
66560;BME280;53413;49.878;8.142;2023-04-01T06:27:33;98231.19;;;9.92;100.00
66560;BME280;53413;49.878;8.142;2023-04-01T06:30:30;98240.81;;;9.91;100.00
66560;BME280;53413;49.878;8.142;2023-04-01T06:33:34;98238.00;;;9.94;100.00
66560;BME280;53413;49.878;8.142;2023-04-01T06:44:26;98236.72;;;10.14;100.00
66560;BME280;53413;49.878;8.142;2023-04-01T06:47:18;98234.63;;;10.20;100.00
66560;BME280;53413;49.878;8.142;2023-04-01T06:49:59;98225.88;;;10.34;100.00
66560;BME280;53413;49.878;8.142;2023-04-01T06:55:35;98231.59;;;10.66;100.00
66560;BME280;53413;49.878;8.142;2023-04-01T06:58:04;98230.38;;;10.85;100.00
66560;BME280;53413;49.878;8.142;2023-04-01T07:00:39;98225.53;;;11.17;100.00
66560;BME280;53413;49.878;8.142;2023-04-01T07:05:46;98230.09;;;11.52;100.00
66560;BME280;53413;49.878;8.142;2023-04-01T07:08:20;98225.94;;;11.61;100.00
66560;BME280;53413;49.878;8.142;2023-04-01T07:11:02;98236.56;;;11.73;100.00
66560;BME280;53413;49.878;8.142;2023-04-01T07:13:39;98228.00;;;11.82;100.00
66560;BME280;53413;49.878;8.142;2023-04-01T07:21:54;98230.84;;;11.79;100.00
66560;BME280;53413;49.878;8.142;2023-04-01T07:24:27;98225.47;;;11.80;100.00
66560;BME280;53413;49.878;8.142;2023-04-01T07:26:56;98230.91;;;11.90;100.00
66560;BME280;53413;49.878;8.142;2023-04-01T07:29:23;98218.38;;;12.07;100.00
66560;BME280;53413;49.878;8.142;2023-04-01T07:32:02;98224.97;;;12.12;100.00
66560;BME280;53413;49.878;8.142;2023-04-01T07:45:48;98229.44;;;12.35;100.00
66560;BME280;53413;49.878;8.142;2023-04-01T07:48:31;98233.88;;;12.34;100.00
66560;BME280;53413;49.878;8.142;2023-04-01T07:51:07;98234.06;;;12.20;100.00
66560;BME280;53413;49.878;8.142;2023-04-01T07:54:19;98241.06;;;12.08;100.00
66560;BME280;53413;49.878;8.142;2023-04-01T07:59:49;98252.84;;;11.89;100.00
66560;BME280;53413;49.878;8.142;2023-04-01T08:10:31;98253.53;;;11.67;100.00
66560;BME280;53413;49.878;8.142;2023-04-01T08:16:06;98261.59;;;11.77;100.00
66560;BME280;53413;49.878;8.142;2023-04-01T08:18:50;98260.44;;;11.81;100.00
66560;BME280;53413;49.878;8.142;2023-04-01T08:21:41;98258.63;;;11.94;100.00
66560;BME280;53413;49.878;8.142;2023-04-01T08:25:05;98262.75;;;12.10;100.00
66560;BME280;53413;49.878;8.142;2023-04-01T08:27:41;98266.31;;;12.22;100.00
66560;BME280;53413;49.878;8.142;2023-04-01T08:30:20;98263.47;;;12.25;100.00
66560;BME280;53413;49.878;8.142;2023-04-01T08:33:15;98267.63;;;12.27;100.00
66560;BME280;53413;49.878;8.142;2023-04-01T08:35:51;98269.41;;;12.27;100.00
66560;BME280;53413;49.878;8.142;2023-04-01T08:52:58;98269.94;;;12.68;100.00
66560;BME280;53413;49.878;8.142;2023-04-01T08:55:40;98271.16;;;12.75;100.00
66560;BME280;53413;49.878;8.142;2023-04-01T09:04:05;98281.03;;;12.60;100.00
66560;BME280;53413;49.878;8.142;2023-04-01T09:18:13;98289.75;;;12.12;100.00
66560;BME280;53413;49.878;8.142;2023-04-01T09:23:36;98295.22;;;12.09;100.00
66560;BME280;53413;49.878;8.142;2023-04-01T09:37:34;98307.72;;;12.78;100.00
66560;BME280;53413;49.878;8.142;2023-04-01T09:40:17;98303.91;;;12.93;100.00
66560;BME280;53413;49.878;8.142;2023-04-01T09:47:45;98319.03;;;13.03;100.00
66560;BME280;53413;49.878;8.142;2023-04-01T09:50:31;98314.22;;;12.97;100.00
66560;BME280;53413;49.878;8.142;2023-04-01T09:53:18;98317.13;;;13.05;100.00
66560;BME280;53413;49.878;8.142;2023-04-01T10:01:47;98322.09;;;13.55;100.00
66560;BME280;53413;49.878;8.142;2023-04-01T10:07:01;98322.69;;;13.59;100.00
66560;BME280;53413;49.878;8.142;2023-04-01T10:27:26;98339.81;;;13.64;100.00
66560;BME280;53413;49.878;8.142;2023-04-01T10:35:38;98335.09;;;13.34;100.00
66560;BME280;53413;49.878;8.142;2023-04-01T10:54:44;98332.63;;;13.44;100.00
66560;BME280;53413;49.878;8.142;2023-04-01T11:17:20;98351.66;;;13.59;100.00
66560;BME280;53413;49.878;8.142;2023-04-01T11:23:12;98353.06;;;13.40;100.00
66560;BME280;53413;49.878;8.142;2023-04-01T11:28:47;98345.44;;;13.13;100.00
66560;BME280;53413;49.878;8.142;2023-04-01T11:40:22;98353.31;;;13.48;100.00
66560;BME280;53413;49.878;8.142;2023-04-01T11:45:56;98361.69;;;13.99;100.00
66560;BME280;53413;49.878;8.142;2023-04-01T11:48:51;98360.94;;;14.31;100.00
66560;BME280;53413;49.878;8.142;2023-04-01T11:54:33;98348.09;;;15.24;100.00
66560;BME280;53413;49.878;8.142;2023-04-01T11:57:18;98353.66;;;15.73;100.00
66560;BME280;53413;49.878;8.142;2023-04-01T12:16:22;98379.44;;;15.60;100.00
66560;BME280;53413;49.878;8.142;2023-04-01T12:19:01;98384.78;;;15.69;100.00
66560;BME280;53413;49.878;8.142;2023-04-01T12:24:40;98386.69;;;14.83;100.00
66560;BME280;53413;49.878;8.142;2023-04-01T12:36:19;98388.78;;;14.45;100.00
66560;BME280;53413;49.878;8.142;2023-04-01T12:55:46;98407.22;;;15.00;100.00
66560;BME280;53413;49.878;8.142;2023-04-01T13:06:35;98409.97;;;14.55;100.00
66560;BME280;53413;49.878;8.142;2023-04-01T13:09:23;98411.50;;;14.80;100.00
66560;BME280;53413;49.878;8.142;2023-04-01T13:15:20;98406.06;;;14.93;100.00
66560;BME280;53413;49.878;8.142;2023-04-01T13:20:40;98408.81;;;14.91;100.00
66560;BME280;53413;49.878;8.142;2023-04-01T13:23:14;98420.47;;;14.89;100.00
66560;BME280;53413;49.878;8.142;2023-04-01T13:28:28;98421.97;;;14.59;100.00
66560;BME280;53413;49.878;8.142;2023-04-01T13:31:02;98427.63;;;14.54;100.00
66560;BME280;53413;49.878;8.142;2023-04-01T13:44:12;98429.38;;;15.09;100.00
66560;BME280;53413;49.878;8.142;2023-04-01T13:46:59;98428.78;;;15.05;100.00
66560;BME280;53413;49.878;8.142;2023-04-01T13:57:42;98426.69;;;15.42;100.00
66560;BME280;53413;49.878;8.142;2023-04-01T14:09:06;98426.41;;;16.18;100.00
66560;BME280;53413;49.878;8.142;2023-04-01T14:11:56;98424.06;;;16.25;100.00
66560;BME280;53413;49.878;8.142;2023-04-01T14:14:41;98435.28;;;16.07;100.00
66560;BME280;53413;49.878;8.142;2023-04-01T14:23:16;98443.38;;;15.21;100.00
66560;BME280;53413;49.878;8.142;2023-04-01T14:29:01;98445.03;;;14.89;100.00
66560;BME280;53413;49.878;8.142;2023-04-01T14:31:34;98458.81;;;14.93;100.00
66560;BME280;53413;49.878;8.142;2023-04-01T14:34:27;98467.41;;;15.06;100.00
66560;BME280;53413;49.878;8.142;2023-04-01T14:46:28;98474.41;;;15.17;100.00
66560;BME280;53413;49.878;8.142;2023-04-01T14:48:28;98469.94;;;15.29;100.00
66560;BME280;53413;49.878;8.142;2023-04-01T14:51:02;98468.22;;;15.39;100.00
66560;BME280;53413;49.878;8.142;2023-04-01T14:53:31;98474.41;;;15.50;100.00
66560;BME280;53413;49.878;8.142;2023-04-01T14:56:00;98475.56;;;15.57;100.00
66560;BME280;53413;49.878;8.142;2023-04-01T14:58:44;98474.00;;;15.54;100.00
66560;BME280;53413;49.878;8.142;2023-04-01T15:01:35;98469.75;;;15.42;100.00
66560;BME280;53413;49.878;8.142;2023-04-01T15:04:37;98474.69;;;15.35;100.00
66560;BME280;53413;49.878;8.142;2023-04-01T15:09:43;98482.13;;;15.09;100.00
66560;BME280;53413;49.878;8.142;2023-04-01T15:15:31;98479.25;;;14.45;100.00
66560;BME280;53413;49.878;8.142;2023-04-01T15:26:19;98512.06;;;14.30;100.00
66560;BME280;53413;49.878;8.142;2023-04-01T15:28:53;98505.34;;;14.26;100.00
66560;BME280;53413;49.878;8.142;2023-04-01T15:31:38;98502.25;;;14.09;100.00
66560;BME280;53413;49.878;8.142;2023-04-01T15:42:37;98524.13;;;13.27;100.00
66560;BME280;53413;49.878;8.142;2023-04-01T15:48:02;98529.72;;;12.98;100.00
66560;BME280;53413;49.878;8.142;2023-04-01T15:53:18;98527.75;;;13.37;100.00
66560;BME280;53413;49.878;8.142;2023-04-01T15:56:08;98524.72;;;14.02;100.00
66560;BME280;53413;49.878;8.142;2023-04-01T15:58:40;98535.75;;;13.96;100.00
66560;BME280;53413;49.878;8.142;2023-04-01T16:20:02;98559.72;;;12.83;100.00
66560;BME280;53413;49.878;8.142;2023-04-01T16:22:49;98559.53;;;12.73;100.00
66560;BME280;53413;49.878;8.142;2023-04-01T16:25:36;98561.88;;;12.65;100.00
66560;BME280;53413;49.878;8.142;2023-04-01T16:30:58;98571.78;;;12.35;100.00
66560;BME280;53413;49.878;8.142;2023-04-01T16:36:42;98587.19;;;12.27;100.00
66560;BME280;53413;49.878;8.142;2023-04-01T16:41:52;98592.97;;;12.06;100.00
66560;BME280;53413;49.878;8.142;2023-04-01T16:44:26;98593.47;;;11.98;100.00
66560;BME280;53413;49.878;8.142;2023-04-01T16:46:54;98596.50;;;11.92;100.00
66560;BME280;53413;49.878;8.142;2023-04-01T16:49:31;98597.63;;;11.88;100.00
66560;BME280;53413;49.878;8.142;2023-04-01T17:02:30;98612.84;;;11.55;100.00
66560;BME280;53413;49.878;8.142;2023-04-01T17:05:08;98614.84;;;11.52;100.00
66560;BME280;53413;49.878;8.142;2023-04-01T17:31:10;98631.06;;;11.02;100.00
66560;BME280;53413;49.878;8.142;2023-04-01T17:36:16;98637.34;;;10.71;100.00
66560;BME280;53413;49.878;8.142;2023-04-01T17:41:54;98643.91;;;10.49;100.00
66560;BME280;53413;49.878;8.142;2023-04-01T17:44:40;98648.88;;;10.39;100.00
66560;BME280;53413;49.878;8.142;2023-04-01T17:47:23;98648.78;;;10.25;100.00
66560;BME280;53413;49.878;8.142;2023-04-01T17:52:57;98659.66;;;10.02;100.00
66560;BME280;53413;49.878;8.142;2023-04-01T17:55:44;98666.19;;;9.95;100.00
66560;BME280;53413;49.878;8.142;2023-04-01T18:01:02;98669.63;;;9.96;100.00
66560;BME280;53413;49.878;8.142;2023-04-01T18:11:51;98701.09;;;10.10;100.00
66560;BME280;53413;49.878;8.142;2023-04-01T18:19:58;98709.72;;;10.12;100.00
66560;BME280;53413;49.878;8.142;2023-04-01T18:25:38;98713.88;;;10.00;100.00
66560;BME280;53413;49.878;8.142;2023-04-01T18:30:32;98728.00;;;9.82;100.00
66560;BME280;53413;49.878;8.142;2023-04-01T18:33:03;98733.81;;;9.71;100.00
66560;BME280;53413;49.878;8.142;2023-04-01T18:38:39;98741.16;;;9.48;100.00
66560;BME280;53413;49.878;8.142;2023-04-01T18:41:22;98742.84;;;9.49;100.00
66560;BME280;53413;49.878;8.142;2023-04-01T18:49:45;98760.91;;;9.20;100.00
66560;BME280;53413;49.878;8.142;2023-04-01T18:52:20;98762.09;;;9.15;100.00
66560;BME280;53413;49.878;8.142;2023-04-01T18:57:52;98774.66;;;9.08;100.00
66560;BME280;53413;49.878;8.142;2023-04-01T19:02:51;98787.94;;;9.03;100.00
66560;BME280;53413;49.878;8.142;2023-04-01T19:05:30;98793.00;;;9.06;100.00
66560;BME280;53413;49.878;8.142;2023-04-01T19:37:18;98812.38;;;9.20;100.00
66560;BME280;53413;49.878;8.142;2023-04-01T19:40:05;98808.72;;;9.22;100.00
66560;BME280;53413;49.878;8.142;2023-04-01T19:43:13;98819.03;;;9.26;100.00
66560;BME280;53413;49.878;8.142;2023-04-01T19:51:41;98828.09;;;9.36;100.00
66560;BME280;53413;49.878;8.142;2023-04-01T19:56:53;98825.81;;;9.30;100.00
66560;BME280;53413;49.878;8.142;2023-04-01T19:59:32;98831.88;;;9.30;100.00
66560;BME280;53413;49.878;8.142;2023-04-01T20:04:43;98845.31;;;9.22;100.00
66560;BME280;53413;49.878;8.142;2023-04-01T20:07:27;98849.03;;;9.18;100.00
66560;BME280;53413;49.878;8.142;2023-04-01T20:13:02;98863.03;;;9.00;100.00
66560;BME280;53413;49.878;8.142;2023-04-01T20:15:40;98864.03;;;8.97;100.00
66560;BME280;53413;49.878;8.142;2023-04-01T20:18:41;98864.72;;;9.01;100.00
66560;BME280;53413;49.878;8.142;2023-04-01T20:21:35;98865.63;;;9.00;100.00
66560;BME280;53413;49.878;8.142;2023-04-01T20:24:07;98874.56;;;8.96;100.00
66560;BME280;53413;49.878;8.142;2023-04-01T20:26:43;98885.84;;;8.96;100.00
66560;BME280;53413;49.878;8.142;2023-04-01T20:29:40;98884.56;;;9.05;100.00
66560;BME280;53413;49.878;8.142;2023-04-01T20:35:08;98885.63;;;9.18;100.00
66560;BME280;53413;49.878;8.142;2023-04-01T20:38:12;98892.38;;;9.22;100.00
66560;BME280;53413;49.878;8.142;2023-04-01T20:40:47;98901.00;;;9.24;100.00
66560;BME280;53413;49.878;8.142;2023-04-01T20:45:58;98904.53;;;9.23;100.00
66560;BME280;53413;49.878;8.142;2023-04-01T20:51:37;98914.63;;;9.14;100.00
66560;BME280;53413;49.878;8.142;2023-04-01T21:02:50;98920.69;;;9.14;100.00
66560;BME280;53413;49.878;8.142;2023-04-01T21:11:53;98917.28;;;9.12;100.00
66560;BME280;53413;49.878;8.142;2023-04-01T21:14:32;98923.28;;;9.14;100.00
66560;BME280;53413;49.878;8.142;2023-04-01T21:22:36;98935.28;;;9.18;100.00
66560;BME280;53413;49.878;8.142;2023-04-01T21:28:16;98939.91;;;9.13;100.00
66560;BME280;53413;49.878;8.142;2023-04-01T21:42:04;98961.81;;;9.11;100.00
66560;BME280;53413;49.878;8.142;2023-04-01T21:53:06;98975.66;;;9.30;100.00
66560;BME280;53413;49.878;8.142;2023-04-01T22:03:57;98995.88;;;9.27;100.00
66560;BME280;53413;49.878;8.142;2023-04-01T22:06:44;99000.31;;;9.24;100.00
66560;BME280;53413;49.878;8.142;2023-04-01T22:14:51;99002.16;;;9.22;100.00
66560;BME280;53413;49.878;8.142;2023-04-01T22:17:31;99004.78;;;9.22;100.00
66560;BME280;53413;49.878;8.142;2023-04-01T22:31:03;99004.34;;;9.32;100.00
66560;BME280;53413;49.878;8.142;2023-04-01T22:33:36;99006.97;;;9.32;100.00
66560;BME280;53413;49.878;8.142;2023-04-01T22:36:22;99005.28;;;9.31;100.00
66560;BME280;53413;49.878;8.142;2023-04-01T22:44:51;99014.31;;;9.23;100.00
66560;BME280;53413;49.878;8.142;2023-04-01T22:47:30;99020.69;;;9.18;100.00
66560;BME280;53413;49.878;8.142;2023-04-01T22:52:45;99014.22;;;9.07;100.00
66560;BME280;53413;49.878;8.142;2023-04-01T22:55:28;99016.13;;;9.04;100.00
66560;BME280;53413;49.878;8.142;2023-04-01T22:58:00;99030.25;;;9.00;100.00
66560;BME280;53413;49.878;8.142;2023-04-01T23:00:33;99026.13;;;8.96;100.00
66560;BME280;53413;49.878;8.142;2023-04-01T23:05:54;99034.09;;;8.92;100.00
66560;BME280;53413;49.878;8.142;2023-04-01T23:10:52;99044.25;;;8.99;100.00
66560;BME280;53413;49.878;8.142;2023-04-01T23:13:29;99043.06;;;9.06;100.00
66560;BME280;53413;49.878;8.142;2023-04-01T23:15:57;99047.06;;;9.13;100.00